sensor_id;sensor_type;location;lat;lon;timestamp;P1;durP1;ratioP1;P2;durP2;ratioP2
52542;SDS011;38449;52.696;6.186;2023-10-31T00:02:08;2.42;;;1.58;;
52542;SDS011;38449;52.696;6.186;2023-10-31T00:04:35;2.20;;;1.45;;
52542;SDS011;38449;52.696;6.186;2023-10-31T00:07:01;1.95;;;1.30;;
52542;SDS011;38449;52.696;6.186;2023-10-31T00:09:27;2.20;;;1.40;;
52542;SDS011;38449;52.696;6.186;2023-10-31T00:11:53;2.50;;;1.15;;
52542;SDS011;38449;52.696;6.186;2023-10-31T00:14:20;2.65;;;1.52;;
52542;SDS011;38449;52.696;6.186;2023-10-31T00:16:46;2.80;;;1.42;;
52542;SDS011;38449;52.696;6.186;2023-10-31T00:19:14;2.40;;;1.50;;
52542;SDS011;38449;52.696;6.186;2023-10-31T00:21:40;4.55;;;1.70;;
52542;SDS011;38449;52.696;6.186;2023-10-31T00:24:07;4.65;;;1.58;;
52542;SDS011;38449;52.696;6.186;2023-10-31T00:26:33;5.50;;;1.65;;
52542;SDS011;38449;52.696;6.186;2023-10-31T00:28:59;3.28;;;1.58;;
52542;SDS011;38449;52.696;6.186;2023-10-31T00:31:25;2.85;;;1.58;;
52542;SDS011;38449;52.696;6.186;2023-10-31T00:33:52;4.35;;;1.40;;
52542;SDS011;38449;52.696;6.186;2023-10-31T00:36:18;4.28;;;2.00;;
52542;SDS011;38449;52.696;6.186;2023-10-31T00:38:44;4.50;;;1.80;;
52542;SDS011;38449;52.696;6.186;2023-10-31T00:41:10;4.05;;;1.63;;
52542;SDS011;38449;52.696;6.186;2023-10-31T00:43:37;4.68;;;1.80;;
52542;SDS011;38449;52.696;6.186;2023-10-31T00:46:03;3.67;;;1.10;;
52542;SDS011;38449;52.696;6.186;2023-10-31T00:48:30;2.60;;;1.20;;
52542;SDS011;38449;52.696;6.186;2023-10-31T00:51:02;2.20;;;1.35;;
52542;SDS011;38449;52.696;6.186;2023-10-31T00:53:31;2.85;;;1.23;;
52542;SDS011;38449;52.696;6.186;2023-10-31T00:55:57;3.25;;;1.33;;
52542;SDS011;38449;52.696;6.186;2023-10-31T00:58:23;2.13;;;1.25;;
52542;SDS011;38449;52.696;6.186;2023-10-31T01:00:50;4.13;;;1.70;;
52542;SDS011;38449;52.696;6.186;2023-10-31T01:03:16;5.45;;;2.45;;
52542;SDS011;38449;52.696;6.186;2023-10-31T01:05:42;2.72;;;1.52;;
52542;SDS011;38449;52.696;6.186;2023-10-31T01:08:08;2.80;;;1.40;;
52542;SDS011;38449;52.696;6.186;2023-10-31T01:10:35;5.43;;;1.65;;
52542;SDS011;38449;52.696;6.186;2023-10-31T01:13:01;2.88;;;1.50;;
52542;SDS011;38449;52.696;6.186;2023-10-31T01:15:27;6.55;;;1.90;;
52542;SDS011;38449;52.696;6.186;2023-10-31T01:17:53;3.47;;;1.70;;
52542;SDS011;38449;52.696;6.186;2023-10-31T01:20:19;4.68;;;1.13;;
52542;SDS011;38449;52.696;6.186;2023-10-31T01:22:46;4.60;;;1.42;;
52542;SDS011;38449;52.696;6.186;2023-10-31T01:25:12;4.72;;;1.70;;
52542;SDS011;38449;52.696;6.186;2023-10-31T01:27:38;4.57;;;1.30;;
52542;SDS011;38449;52.696;6.186;2023-10-31T01:30:05;4.35;;;1.40;;
52542;SDS011;38449;52.696;6.186;2023-10-31T01:32:31;4.60;;;1.10;;
52542;SDS011;38449;52.696;6.186;2023-10-31T01:34:58;5.32;;;1.70;;
52542;SDS011;38449;52.696;6.186;2023-10-31T01:37:24;7.20;;;1.33;;
52542;SDS011;38449;52.696;6.186;2023-10-31T01:39:50;4.93;;;1.92;;
52542;SDS011;38449;52.696;6.186;2023-10-31T01:42:16;3.70;;;1.20;;
52542;SDS011;38449;52.696;6.186;2023-10-31T01:44:43;4.97;;;1.63;;
52542;SDS011;38449;52.696;6.186;2023-10-31T01:47:09;4.75;;;1.60;;
52542;SDS011;38449;52.696;6.186;2023-10-31T01:49:36;3.60;;;1.30;;
52542;SDS011;38449;52.696;6.186;2023-10-31T01:52:05;4.75;;;1.45;;
52542;SDS011;38449;52.696;6.186;2023-10-31T01:54:32;5.82;;;1.70;;
52542;SDS011;38449;52.696;6.186;2023-10-31T01:57:00;5.85;;;1.90;;
52542;SDS011;38449;52.696;6.186;2023-10-31T01:59:27;3.45;;;2.08;;
52542;SDS011;38449;52.696;6.186;2023-10-31T02:01:57;3.50;;;1.73;;
52542;SDS011;38449;52.696;6.186;2023-10-31T02:04:23;4.45;;;1.98;;
52542;SDS011;38449;52.696;6.186;2023-10-31T02:06:50;3.20;;;1.83;;
52542;SDS011;38449;52.696;6.186;2023-10-31T02:09:16;7.15;;;2.17;;
52542;SDS011;38449;52.696;6.186;2023-10-31T02:11:42;5.63;;;2.13;;
52542;SDS011;38449;52.696;6.186;2023-10-31T02:14:08;6.03;;;2.03;;
52542;SDS011;38449;52.696;6.186;2023-10-31T02:16:35;4.50;;;2.40;;
52542;SDS011;38449;52.696;6.186;2023-10-31T02:19:01;3.38;;;2.03;;
52542;SDS011;38449;52.696;6.186;2023-10-31T02:21:29;5.40;;;2.70;;
52542;SDS011;38449;52.696;6.186;2023-10-31T02:23:57;5.18;;;2.50;;
52542;SDS011;38449;52.696;6.186;2023-10-31T02:26:31;5.18;;;2.60;;
52542;SDS011;38449;52.696;6.186;2023-10-31T02:28:59;5.47;;;2.22;;
52542;SDS011;38449;52.696;6.186;2023-10-31T02:31:26;9.80;;;3.17;;
52542;SDS011;38449;52.696;6.186;2023-10-31T02:33:52;5.20;;;2.17;;
52542;SDS011;38449;52.696;6.186;2023-10-31T02:36:19;6.13;;;2.72;;
52542;SDS011;38449;52.696;6.186;2023-10-31T02:38:45;9.63;;;2.97;;
52542;SDS011;38449;52.696;6.186;2023-10-31T02:41:12;10.25;;;2.97;;
52542;SDS011;38449;52.696;6.186;2023-10-31T02:43:39;10.30;;;2.67;;
52542;SDS011;38449;52.696;6.186;2023-10-31T02:46:06;16.52;;;4.30;;
52542;SDS011;38449;52.696;6.186;2023-10-31T02:48:32;7.07;;;2.95;;
52542;SDS011;38449;52.696;6.186;2023-10-31T02:51:04;6.35;;;3.15;;
52542;SDS011;38449;52.696;6.186;2023-10-31T02:53:31;11.35;;;3.22;;
52542;SDS011;38449;52.696;6.186;2023-10-31T02:55:57;10.98;;;3.53;;
52542;SDS011;38449;52.696;6.186;2023-10-31T02:58:23;9.45;;;2.97;;
52542;SDS011;38449;52.696;6.186;2023-10-31T03:00:49;9.85;;;3.08;;
52542;SDS011;38449;52.696;6.186;2023-10-31T03:03:16;9.50;;;2.78;;
52542;SDS011;38449;52.696;6.186;2023-10-31T03:05:42;10.75;;;3.30;;
52542;SDS011;38449;52.696;6.186;2023-10-31T03:08:08;9.40;;;3.38;;
52542;SDS011;38449;52.696;6.186;2023-10-31T03:10:37;9.32;;;3.38;;
52542;SDS011;38449;52.696;6.186;2023-10-31T03:13:04;6.90;;;3.30;;
52542;SDS011;38449;52.696;6.186;2023-10-31T03:15:30;9.77;;;3.20;;
52542;SDS011;38449;52.696;6.186;2023-10-31T03:17:56;7.43;;;2.58;;
52542;SDS011;38449;52.696;6.186;2023-10-31T03:20:23;9.10;;;2.60;;
52542;SDS011;38449;52.696;6.186;2023-10-31T03:22:49;10.55;;;3.30;;
52542;SDS011;38449;52.696;6.186;2023-10-31T03:25:15;5.72;;;2.05;;
52542;SDS011;38449;52.696;6.186;2023-10-31T03:27:42;8.95;;;2.22;;
52542;SDS011;38449;52.696;6.186;2023-10-31T03:30:08;6.55;;;2.67;;
52542;SDS011;38449;52.696;6.186;2023-10-31T03:32:35;6.40;;;2.13;;
52542;SDS011;38449;52.696;6.186;2023-10-31T03:35:01;7.00;;;2.03;;
52542;SDS011;38449;52.696;6.186;2023-10-31T03:37:27;6.93;;;2.10;;
52542;SDS011;38449;52.696;6.186;2023-10-31T03:39:53;7.90;;;2.58;;
52542;SDS011;38449;52.696;6.186;2023-10-31T03:42:20;6.70;;;2.10;;
52542;SDS011;38449;52.696;6.186;2023-10-31T03:44:46;5.10;;;2.00;;
52542;SDS011;38449;52.696;6.186;2023-10-31T03:47:12;8.65;;;2.10;;
52542;SDS011;38449;52.696;6.186;2023-10-31T03:49:39;6.15;;;2.40;;
52542;SDS011;38449;52.696;6.186;2023-10-31T03:52:06;7.57;;;2.28;;
52542;SDS011;38449;52.696;6.186;2023-10-31T03:54:32;6.20;;;2.70;;
52542;SDS011;38449;52.696;6.186;2023-10-31T03:56:59;8.10;;;2.40;;
52542;SDS011;38449;52.696;6.186;2023-10-31T03:59:25;6.07;;;2.50;;
52542;SDS011;38449;52.696;6.186;2023-10-31T04:01:51;8.48;;;3.25;;
52542;SDS011;38449;52.696;6.186;2023-10-31T04:04:18;7.65;;;2.30;;
52542;SDS011;38449;52.696;6.186;2023-10-31T04:06:44;7.60;;;2.70;;
52542;SDS011;38449;52.696;6.186;2023-10-31T04:09:10;11.15;;;3.13;;
52542;SDS011;38449;52.696;6.186;2023-10-31T04:11:37;7.15;;;2.78;;
52542;SDS011;38449;52.696;6.186;2023-10-31T04:14:04;7.60;;;2.20;;
52542;SDS011;38449;52.696;6.186;2023-10-31T04:16:31;7.85;;;2.25;;
52542;SDS011;38449;52.696;6.186;2023-10-31T04:18:58;7.60;;;2.30;;
52542;SDS011;38449;52.696;6.186;2023-10-31T04:21:24;6.10;;;2.10;;
52542;SDS011;38449;52.696;6.186;2023-10-31T04:23:50;6.00;;;2.40;;
52542;SDS011;38449;52.696;6.186;2023-10-31T04:26:16;7.22;;;2.42;;
52542;SDS011;38449;52.696;6.186;2023-10-31T04:28:43;6.68;;;2.05;;
52542;SDS011;38449;52.696;6.186;2023-10-31T04:31:09;9.88;;;2.53;;
52542;SDS011;38449;52.696;6.186;2023-10-31T04:33:35;9.35;;;2.88;;
52542;SDS011;38449;52.696;6.186;2023-10-31T04:36:02;10.43;;;2.67;;
52542;SDS011;38449;52.696;6.186;2023-10-31T04:38:29;10.93;;;3.15;;
52542;SDS011;38449;52.696;6.186;2023-10-31T04:40:55;11.98;;;2.38;;
52542;SDS011;38449;52.696;6.186;2023-10-31T04:43:22;10.85;;;2.50;;
52542;SDS011;38449;52.696;6.186;2023-10-31T04:45:48;13.80;;;4.28;;
52542;SDS011;38449;52.696;6.186;2023-10-31T04:48:14;13.90;;;3.38;;
52542;SDS011;38449;52.696;6.186;2023-10-31T04:50:40;8.25;;;3.70;;
52542;SDS011;38449;52.696;6.186;2023-10-31T04:53:07;9.40;;;3.65;;
52542;SDS011;38449;52.696;6.186;2023-10-31T04:55:33;8.43;;;3.17;;
52542;SDS011;38449;52.696;6.186;2023-10-31T04:57:59;5.38;;;2.42;;
52542;SDS011;38449;52.696;6.186;2023-10-31T05:00:25;7.90;;;2.80;;
52542;SDS011;38449;52.696;6.186;2023-10-31T05:02:52;10.45;;;3.05;;
52542;SDS011;38449;52.696;6.186;2023-10-31T05:05:18;9.35;;;3.08;;
52542;SDS011;38449;52.696;6.186;2023-10-31T05:07:45;5.15;;;2.00;;
52542;SDS011;38449;52.696;6.186;2023-10-31T05:10:11;6.20;;;1.92;;
52542;SDS011;38449;52.696;6.186;2023-10-31T05:12:37;6.35;;;2.70;;
52542;SDS011;38449;52.696;6.186;2023-10-31T05:15:04;7.30;;;2.70;;
52542;SDS011;38449;52.696;6.186;2023-10-31T05:17:30;7.60;;;2.28;;
52542;SDS011;38449;52.696;6.186;2023-10-31T05:19:57;7.82;;;2.13;;
52542;SDS011;38449;52.696;6.186;2023-10-31T05:22:23;8.13;;;2.25;;
52542;SDS011;38449;52.696;6.186;2023-10-31T05:24:49;5.95;;;2.03;;
52542;SDS011;38449;52.696;6.186;2023-10-31T05:27:15;5.57;;;2.28;;
52542;SDS011;38449;52.696;6.186;2023-10-31T05:29:42;6.65;;;2.30;;
52542;SDS011;38449;52.696;6.186;2023-10-31T05:32:08;6.53;;;1.90;;
52542;SDS011;38449;52.696;6.186;2023-10-31T05:34:34;3.80;;;1.70;;
52542;SDS011;38449;52.696;6.186;2023-10-31T05:37:00;4.93;;;1.70;;
52542;SDS011;38449;52.696;6.186;2023-10-31T05:39:27;6.57;;;1.75;;
52542;SDS011;38449;52.696;6.186;2023-10-31T05:41:53;5.30;;;1.45;;
52542;SDS011;38449;52.696;6.186;2023-10-31T05:44:19;2.83;;;1.23;;
52542;SDS011;38449;52.696;6.186;2023-10-31T05:46:45;4.93;;;1.50;;
52542;SDS011;38449;52.696;6.186;2023-10-31T05:49:12;3.22;;;2.05;;
52542;SDS011;38449;52.696;6.186;2023-10-31T05:51:38;3.60;;;1.70;;
52542;SDS011;38449;52.696;6.186;2023-10-31T05:54:06;4.70;;;1.63;;
52542;SDS011;38449;52.696;6.186;2023-10-31T05:56:33;8.18;;;1.88;;
52542;SDS011;38449;52.696;6.186;2023-10-31T05:58:59;3.83;;;1.48;;
52542;SDS011;38449;52.696;6.186;2023-10-31T06:01:26;1.80;;;1.20;;
52542;SDS011;38449;52.696;6.186;2023-10-31T06:03:52;3.67;;;1.63;;
52542;SDS011;38449;52.696;6.186;2023-10-31T06:06:19;3.85;;;1.27;;
52542;SDS011;38449;52.696;6.186;2023-10-31T06:08:45;3.05;;;1.25;;
52542;SDS011;38449;52.696;6.186;2023-10-31T06:11:11;4.28;;;1.23;;
52542;SDS011;38449;52.696;6.186;2023-10-31T06:13:38;2.10;;;1.30;;
52542;SDS011;38449;52.696;6.186;2023-10-31T06:16:04;4.15;;;1.42;;
52542;SDS011;38449;52.696;6.186;2023-10-31T06:18:30;2.67;;;1.52;;
52542;SDS011;38449;52.696;6.186;2023-10-31T06:20:57;4.20;;;1.50;;
52542;SDS011;38449;52.696;6.186;2023-10-31T06:23:23;4.60;;;1.40;;
52542;SDS011;38449;52.696;6.186;2023-10-31T06:25:49;2.17;;;1.33;;
52542;SDS011;38449;52.696;6.186;2023-10-31T06:28:15;4.63;;;1.40;;
52542;SDS011;38449;52.696;6.186;2023-10-31T06:30:42;3.03;;;1.52;;
52542;SDS011;38449;52.696;6.186;2023-10-31T06:33:08;5.32;;;1.63;;
52542;SDS011;38449;52.696;6.186;2023-10-31T06:35:36;3.60;;;1.73;;
52542;SDS011;38449;52.696;6.186;2023-10-31T06:38:02;4.45;;;1.83;;
52542;SDS011;38449;52.696;6.186;2023-10-31T06:40:28;2.80;;;1.48;;
52542;SDS011;38449;52.696;6.186;2023-10-31T06:42:55;2.40;;;1.50;;
52542;SDS011;38449;52.696;6.186;2023-10-31T06:45:21;4.05;;;1.80;;
52542;SDS011;38449;52.696;6.186;2023-10-31T06:47:47;3.03;;;1.55;;
52542;SDS011;38449;52.696;6.186;2023-10-31T06:50:14;3.67;;;1.40;;
52542;SDS011;38449;52.696;6.186;2023-10-31T06:52:41;4.05;;;1.60;;
52542;SDS011;38449;52.696;6.186;2023-10-31T06:55:07;5.18;;;1.70;;
52542;SDS011;38449;52.696;6.186;2023-10-31T06:57:34;5.43;;;1.70;;
52542;SDS011;38449;52.696;6.186;2023-10-31T07:00:00;4.22;;;2.15;;
52542;SDS011;38449;52.696;6.186;2023-10-31T07:02:26;5.30;;;1.80;;
52542;SDS011;38449;52.696;6.186;2023-10-31T07:04:53;3.28;;;1.52;;
52542;SDS011;38449;52.696;6.186;2023-10-31T07:07:19;4.22;;;1.55;;
52542;SDS011;38449;52.696;6.186;2023-10-31T07:09:45;4.55;;;1.73;;
52542;SDS011;38449;52.696;6.186;2023-10-31T07:12:12;3.63;;;1.52;;
52542;SDS011;38449;52.696;6.186;2023-10-31T07:14:38;6.15;;;1.77;;
52542;SDS011;38449;52.696;6.186;2023-10-31T07:17:04;4.70;;;1.98;;
52542;SDS011;38449;52.696;6.186;2023-10-31T07:19:31;6.18;;;1.92;;
52542;SDS011;38449;52.696;6.186;2023-10-31T07:21:57;5.28;;;2.03;;
52542;SDS011;38449;52.696;6.186;2023-10-31T07:24:23;5.25;;;2.00;;
52542;SDS011;38449;52.696;6.186;2023-10-31T07:26:50;3.55;;;1.98;;
52542;SDS011;38449;52.696;6.186;2023-10-31T07:29:16;13.25;;;2.92;;
52542;SDS011;38449;52.696;6.186;2023-10-31T07:31:42;9.02;;;3.80;;
52542;SDS011;38449;52.696;6.186;2023-10-31T07:34:09;16.70;;;3.53;;
52542;SDS011;38449;52.696;6.186;2023-10-31T07:36:37;8.73;;;3.17;;
52542;SDS011;38449;52.696;6.186;2023-10-31T07:39:05;7.95;;;3.75;;
52542;SDS011;38449;52.696;6.186;2023-10-31T07:41:31;8.07;;;3.33;;
52542;SDS011;38449;52.696;6.186;2023-10-31T07:43:57;12.77;;;4.10;;
52542;SDS011;38449;52.696;6.186;2023-10-31T07:46:23;9.68;;;4.22;;
52542;SDS011;38449;52.696;6.186;2023-10-31T07:48:50;8.30;;;2.80;;
52542;SDS011;38449;52.696;6.186;2023-10-31T07:51:16;6.45;;;2.53;;
52542;SDS011;38449;52.696;6.186;2023-10-31T07:53:42;6.82;;;3.10;;
52542;SDS011;38449;52.696;6.186;2023-10-31T07:56:15;5.93;;;2.70;;
52542;SDS011;38449;52.696;6.186;2023-10-31T07:58:51;4.22;;;2.15;;
52542;SDS011;38449;52.696;6.186;2023-10-31T08:01:32;4.25;;;1.75;;
52542;SDS011;38449;52.696;6.186;2023-10-31T08:03:59;6.82;;;2.20;;
52542;SDS011;38449;52.696;6.186;2023-10-31T08:06:26;5.63;;;2.10;;
52542;SDS011;38449;52.696;6.186;2023-10-31T08:08:58;5.55;;;2.20;;
52542;SDS011;38449;52.696;6.186;2023-10-31T08:11:24;9.45;;;3.00;;
52542;SDS011;38449;52.696;6.186;2023-10-31T08:13:53;5.68;;;2.10;;
52542;SDS011;38449;52.696;6.186;2023-10-31T08:16:19;6.60;;;2.15;;
52542;SDS011;38449;52.696;6.186;2023-10-31T08:18:46;7.78;;;2.05;;
52542;SDS011;38449;52.696;6.186;2023-10-31T08:21:12;8.32;;;2.20;;
52542;SDS011;38449;52.696;6.186;2023-10-31T08:23:39;5.82;;;2.15;;
52542;SDS011;38449;52.696;6.186;2023-10-31T08:26:05;12.45;;;3.72;;
52542;SDS011;38449;52.696;6.186;2023-10-31T08:28:31;11.73;;;3.17;;
52542;SDS011;38449;52.696;6.186;2023-10-31T08:30:57;7.95;;;2.33;;
52542;SDS011;38449;52.696;6.186;2023-10-31T08:33:23;7.50;;;2.30;;
52542;SDS011;38449;52.696;6.186;2023-10-31T08:35:50;7.13;;;1.98;;
52542;SDS011;38449;52.696;6.186;2023-10-31T08:38:16;6.85;;;2.75;;
52542;SDS011;38449;52.696;6.186;2023-10-31T08:40:43;7.22;;;2.10;;
52542;SDS011;38449;52.696;6.186;2023-10-31T08:43:10;8.38;;;2.75;;
52542;SDS011;38449;52.696;6.186;2023-10-31T08:45:36;8.77;;;2.78;;
52542;SDS011;38449;52.696;6.186;2023-10-31T08:48:03;12.70;;;4.25;;
52542;SDS011;38449;52.696;6.186;2023-10-31T08:50:29;11.40;;;3.40;;
52542;SDS011;38449;52.696;6.186;2023-10-31T08:52:55;9.88;;;3.10;;
52542;SDS011;38449;52.696;6.186;2023-10-31T08:55:22;13.85;;;3.72;;
52542;SDS011;38449;52.696;6.186;2023-10-31T08:57:48;9.63;;;3.30;;
52542;SDS011;38449;52.696;6.186;2023-10-31T09:00:15;8.90;;;3.10;;
52542;SDS011;38449;52.696;6.186;2023-10-31T09:02:41;10.55;;;4.10;;
52542;SDS011;38449;52.696;6.186;2023-10-31T09:05:08;9.35;;;2.20;;
52542;SDS011;38449;52.696;6.186;2023-10-31T09:07:35;6.60;;;1.90;;
52542;SDS011;38449;52.696;6.186;2023-10-31T09:10:01;5.53;;;1.52;;
52542;SDS011;38449;52.696;6.186;2023-10-31T09:12:27;5.20;;;1.23;;
52542;SDS011;38449;52.696;6.186;2023-10-31T09:14:53;4.50;;;1.48;;
52542;SDS011;38449;52.696;6.186;2023-10-31T09:17:20;5.00;;;1.13;;
52542;SDS011;38449;52.696;6.186;2023-10-31T09:19:46;4.53;;;1.20;;
52542;SDS011;38449;52.696;6.186;2023-10-31T09:22:12;5.10;;;1.35;;
52542;SDS011;38449;52.696;6.186;2023-10-31T09:24:39;7.10;;;1.70;;
52542;SDS011;38449;52.696;6.186;2023-10-31T09:27:06;4.28;;;1.23;;
52542;SDS011;38449;52.696;6.186;2023-10-31T09:29:32;2.95;;;0.80;;
52542;SDS011;38449;52.696;6.186;2023-10-31T09:31:58;4.32;;;1.30;;
52542;SDS011;38449;52.696;6.186;2023-10-31T09:34:25;3.67;;;1.23;;
52542;SDS011;38449;52.696;6.186;2023-10-31T09:36:51;4.00;;;1.10;;
52542;SDS011;38449;52.696;6.186;2023-10-31T09:39:17;4.05;;;1.30;;
52542;SDS011;38449;52.696;6.186;2023-10-31T09:41:44;3.33;;;1.40;;
52542;SDS011;38449;52.696;6.186;2023-10-31T09:44:10;3.03;;;1.10;;
52542;SDS011;38449;52.696;6.186;2023-10-31T09:46:36;3.10;;;1.20;;
52542;SDS011;38449;52.696;6.186;2023-10-31T09:49:03;5.80;;;1.30;;
52542;SDS011;38449;52.696;6.186;2023-10-31T09:51:30;5.40;;;1.58;;
52542;SDS011;38449;52.696;6.186;2023-10-31T09:53:56;3.60;;;1.20;;
52542;SDS011;38449;52.696;6.186;2023-10-31T09:56:25;3.65;;;1.30;;
52542;SDS011;38449;52.696;6.186;2023-10-31T09:58:52;3.13;;;1.10;;
52542;SDS011;38449;52.696;6.186;2023-10-31T10:01:18;4.60;;;1.10;;
52542;SDS011;38449;52.696;6.186;2023-10-31T10:03:45;3.67;;;0.75;;
52542;SDS011;38449;52.696;6.186;2023-10-31T10:06:11;1.73;;;0.93;;
52542;SDS011;38449;52.696;6.186;2023-10-31T10:08:38;3.42;;;0.80;;
52542;SDS011;38449;52.696;6.186;2023-10-31T10:11:05;3.67;;;0.85;;
52542;SDS011;38449;52.696;6.186;2023-10-31T10:13:32;3.88;;;1.05;;
52542;SDS011;38449;52.696;6.186;2023-10-31T10:15:58;2.95;;;0.82;;
52542;SDS011;38449;52.696;6.186;2023-10-31T10:18:25;2.75;;;1.05;;
52542;SDS011;38449;52.696;6.186;2023-10-31T10:21:02;3.15;;;1.00;;
52542;SDS011;38449;52.696;6.186;2023-10-31T10:23:29;3.97;;;1.10;;
52542;SDS011;38449;52.696;6.186;2023-10-31T10:25:57;3.15;;;0.90;;
52542;SDS011;38449;52.696;6.186;2023-10-31T10:28:24;3.83;;;0.70;;
52542;SDS011;38449;52.696;6.186;2023-10-31T10:30:51;3.65;;;0.88;;
52542;SDS011;38449;52.696;6.186;2023-10-31T10:33:20;2.08;;;0.80;;
52542;SDS011;38449;52.696;6.186;2023-10-31T10:35:47;2.80;;;0.75;;
52542;SDS011;38449;52.696;6.186;2023-10-31T10:38:17;1.30;;;0.80;;
52542;SDS011;38449;52.696;6.186;2023-10-31T10:40:48;2.47;;;0.82;;
52542;SDS011;38449;52.696;6.186;2023-10-31T10:43:22;1.70;;;0.80;;
52542;SDS011;38449;52.696;6.186;2023-10-31T10:45:53;1.85;;;0.77;;
52542;SDS011;38449;52.696;6.186;2023-10-31T10:48:24;3.53;;;1.00;;
52542;SDS011;38449;52.696;6.186;2023-10-31T10:50:56;1.42;;;0.80;;
52542;SDS011;38449;52.696;6.186;2023-10-31T10:53:26;2.58;;;1.10;;
52542;SDS011;38449;52.696;6.186;2023-10-31T10:55:58;3.70;;;1.08;;
52542;SDS011;38449;52.696;6.186;2023-10-31T10:58:43;1.75;;;0.93;;
52542;SDS011;38449;52.696;6.186;2023-10-31T11:01:16;2.53;;;1.33;;
52542;SDS011;38449;52.696;6.186;2023-10-31T11:03:44;2.65;;;0.93;;
52542;SDS011;38449;52.696;6.186;2023-10-31T11:06:11;3.03;;;1.10;;
52542;SDS011;38449;52.696;6.186;2023-10-31T11:08:40;1.20;;;0.82;;
52542;SDS011;38449;52.696;6.186;2023-10-31T11:11:07;2.67;;;0.80;;
52542;SDS011;38449;52.696;6.186;2023-10-31T11:13:33;3.25;;;1.00;;
52542;SDS011;38449;52.696;6.186;2023-10-31T11:16:02;3.00;;;0.82;;
52542;SDS011;38449;52.696;6.186;2023-10-31T11:18:34;4.30;;;0.80;;
52542;SDS011;38449;52.696;6.186;2023-10-31T11:21:01;1.77;;;0.70;;
52542;SDS011;38449;52.696;6.186;2023-10-31T11:23:28;3.15;;;1.23;;
52542;SDS011;38449;52.696;6.186;2023-10-31T11:25:54;2.45;;;0.95;;
52542;SDS011;38449;52.696;6.186;2023-10-31T11:28:21;1.52;;;0.68;;
52542;SDS011;38449;52.696;6.186;2023-10-31T11:30:48;6.25;;;1.30;;
52542;SDS011;38449;52.696;6.186;2023-10-31T11:33:15;3.55;;;0.95;;
52542;SDS011;38449;52.696;6.186;2023-10-31T11:35:49;2.08;;;0.77;;
52542;SDS011;38449;52.696;6.186;2023-10-31T11:38:16;3.22;;;1.10;;
52542;SDS011;38449;52.696;6.186;2023-10-31T11:43:19;3.17;;;1.13;;
52542;SDS011;38449;52.696;6.186;2023-10-31T11:45:45;1.67;;;0.93;;
52542;SDS011;38449;52.696;6.186;2023-10-31T11:48:14;2.28;;;1.20;;
52542;SDS011;38449;52.696;6.186;2023-10-31T11:50:41;1.83;;;1.15;;
52542;SDS011;38449;52.696;6.186;2023-10-31T11:53:08;2.83;;;1.17;;
52542;SDS011;38449;52.696;6.186;2023-10-31T11:55:39;2.75;;;1.10;;
52542;SDS011;38449;52.696;6.186;2023-10-31T11:58:18;3.33;;;0.95;;
52542;SDS011;38449;52.696;6.186;2023-10-31T12:00:46;3.35;;;1.02;;
52542;SDS011;38449;52.696;6.186;2023-10-31T12:03:16;1.88;;;0.80;;
52542;SDS011;38449;52.696;6.186;2023-10-31T12:05:53;3.25;;;0.88;;
52542;SDS011;38449;52.696;6.186;2023-10-31T12:08:30;2.25;;;0.70;;
52542;SDS011;38449;52.696;6.186;2023-10-31T12:11:14;2.03;;;0.85;;
52542;SDS011;38449;52.696;6.186;2023-10-31T12:13:59;4.60;;;1.60;;
52542;SDS011;38449;52.696;6.186;2023-10-31T12:16:31;2.28;;;1.20;;
52542;SDS011;38449;52.696;6.186;2023-10-31T12:18:59;3.80;;;1.42;;
52542;SDS011;38449;52.696;6.186;2023-10-31T12:21:43;1.40;;;0.90;;
52542;SDS011;38449;52.696;6.186;2023-10-31T12:24:16;2.45;;;0.90;;
52542;SDS011;38449;52.696;6.186;2023-10-31T12:26:44;3.65;;;1.10;;
52542;SDS011;38449;52.696;6.186;2023-10-31T12:31:45;2.80;;;1.00;;
52542;SDS011;38449;52.696;6.186;2023-10-31T12:34:13;0.47;;;0.47;;
52542;SDS011;38449;52.696;6.186;2023-10-31T12:36:40;2.10;;;0.93;;
52542;SDS011;38449;52.696;6.186;2023-10-31T12:39:09;1.67;;;0.70;;
52542;SDS011;38449;52.696;6.186;2023-10-31T12:41:37;2.17;;;0.93;;
52542;SDS011;38449;52.696;6.186;2023-10-31T12:44:05;3.35;;;1.05;;
52542;SDS011;38449;52.696;6.186;2023-10-31T12:46:33;1.48;;;0.47;;
52542;SDS011;38449;52.696;6.186;2023-10-31T12:49:01;2.55;;;0.88;;
52542;SDS011;38449;52.696;6.186;2023-10-31T12:51:27;1.25;;;0.70;;
52542;SDS011;38449;52.696;6.186;2023-10-31T12:53:54;1.65;;;0.73;;
52542;SDS011;38449;52.696;6.186;2023-10-31T12:56:40;3.75;;;0.73;;
52542;SDS011;38449;52.696;6.186;2023-10-31T12:59:07;1.90;;;0.63;;
52542;SDS011;38449;52.696;6.186;2023-10-31T13:01:35;3.05;;;0.85;;
52542;SDS011;38449;52.696;6.186;2023-10-31T13:04:02;1.50;;;0.43;;
52542;SDS011;38449;52.696;6.186;2023-10-31T13:06:29;1.92;;;1.10;;
52542;SDS011;38449;52.696;6.186;2023-10-31T13:08:56;1.50;;;0.55;;
52542;SDS011;38449;52.696;6.186;2023-10-31T13:11:23;2.00;;;0.90;;
52542;SDS011;38449;52.696;6.186;2023-10-31T13:13:52;1.98;;;0.68;;
52542;SDS011;38449;52.696;6.186;2023-10-31T13:16:19;1.52;;;1.00;;
52542;SDS011;38449;52.696;6.186;2023-10-31T13:18:45;2.10;;;1.05;;
52542;SDS011;38449;52.696;6.186;2023-10-31T13:21:12;0.98;;;0.90;;
52542;SDS011;38449;52.696;6.186;2023-10-31T13:23:40;4.07;;;0.88;;
52542;SDS011;38449;52.696;6.186;2023-10-31T13:26:11;2.03;;;1.13;;
52542;SDS011;38449;52.696;6.186;2023-10-31T13:28:38;2.15;;;0.77;;
52542;SDS011;38449;52.696;6.186;2023-10-31T13:31:05;0.82;;;0.63;;
52542;SDS011;38449;52.696;6.186;2023-10-31T13:33:33;2.10;;;0.70;;
52542;SDS011;38449;52.696;6.186;2023-10-31T13:35:59;1.98;;;0.73;;
52542;SDS011;38449;52.696;6.186;2023-10-31T13:38:25;0.82;;;0.70;;
52542;SDS011;38449;52.696;6.186;2023-10-31T13:40:52;2.22;;;0.85;;
52542;SDS011;38449;52.696;6.186;2023-10-31T13:43:18;1.20;;;0.80;;
52542;SDS011;38449;52.696;6.186;2023-10-31T13:45:44;0.88;;;0.63;;
52542;SDS011;38449;52.696;6.186;2023-10-31T13:48:11;1.45;;;0.80;;
52542;SDS011;38449;52.696;6.186;2023-10-31T13:50:38;3.42;;;1.48;;
52542;SDS011;38449;52.696;6.186;2023-10-31T13:53:05;3.70;;;1.35;;
52542;SDS011;38449;52.696;6.186;2023-10-31T13:55:33;12.18;;;5.70;;
52542;SDS011;38449;52.696;6.186;2023-10-31T13:57:59;7.20;;;2.45;;
52542;SDS011;38449;52.696;6.186;2023-10-31T14:00:29;3.45;;;1.40;;
52542;SDS011;38449;52.696;6.186;2023-10-31T14:02:55;8.73;;;5.80;;
52542;SDS011;38449;52.696;6.186;2023-10-31T14:05:21;6.60;;;4.32;;
52542;SDS011;38449;52.696;6.186;2023-10-31T14:07:48;2.63;;;1.70;;
52542;SDS011;38449;52.696;6.186;2023-10-31T14:10:16;2.60;;;1.13;;
52542;SDS011;38449;52.696;6.186;2023-10-31T14:12:48;3.45;;;1.92;;
52542;SDS011;38449;52.696;6.186;2023-10-31T14:15:14;2.78;;;2.15;;
52542;SDS011;38449;52.696;6.186;2023-10-31T14:17:40;2.97;;;1.40;;
52542;SDS011;38449;52.696;6.186;2023-10-31T14:20:07;2.25;;;1.10;;
52542;SDS011;38449;52.696;6.186;2023-10-31T14:22:33;1.30;;;0.80;;
52542;SDS011;38449;52.696;6.186;2023-10-31T14:25:00;1.67;;;0.82;;
52542;SDS011;38449;52.696;6.186;2023-10-31T14:27:29;1.58;;;0.80;;
52542;SDS011;38449;52.696;6.186;2023-10-31T14:29:56;1.15;;;0.70;;
52542;SDS011;38449;52.696;6.186;2023-10-31T14:32:23;0.80;;;0.68;;
52542;SDS011;38449;52.696;6.186;2023-10-31T14:34:49;2.42;;;0.82;;
52542;SDS011;38449;52.696;6.186;2023-10-31T14:37:15;2.90;;;0.77;;
52542;SDS011;38449;52.696;6.186;2023-10-31T14:39:41;2.35;;;0.80;;
52542;SDS011;38449;52.696;6.186;2023-10-31T14:42:08;1.67;;;0.68;;
52542;SDS011;38449;52.696;6.186;2023-10-31T14:44:35;2.40;;;0.93;;
52542;SDS011;38449;52.696;6.186;2023-10-31T14:47:01;2.80;;;1.17;;
52542;SDS011;38449;52.696;6.186;2023-10-31T14:49:27;1.13;;;0.60;;
52542;SDS011;38449;52.696;6.186;2023-10-31T14:51:54;3.08;;;1.50;;
52542;SDS011;38449;52.696;6.186;2023-10-31T14:54:20;3.17;;;1.02;;